Time,TemperatureF,DewpointF,PressureIn,WindDirection,WindDirectionDegrees,WindSpeedMPH,WindSpeedGustMPH,Humidity,HourlyPrecipIn,Conditions,Clouds,dailyrainin,SoftwareType,DateUTC
2013-05-25 00:08:00,61.8,55.0,29.95,SE,143,1.0,3.0,78,0.00,,,0.00,weatherlink.com 1.10,2013-05-25 07:08:00,
2013-05-25 00:23:00,61.6,55.0,29.95,SE,125,1.0,4.0,78,0.00,,,0.00,weatherlink.com 1.10,2013-05-25 07:23:00,
2013-05-25 00:38:00,61.5,55.0,29.95,SE,135,1.0,4.0,78,0.00,,,0.00,weatherlink.com 1.10,2013-05-25 07:38:00,
2013-05-25 00:53:00,61.6,54.0,29.95,SE,136,0.0,4.0,77,0.00,,,0.00,weatherlink.com 1.10,2013-05-25 07:53:00,
2013-05-25 01:08:00,61.8,55.0,29.95,ESE,108,4.0,6.0,77,0.00,,,0.00,weatherlink.com 1.10,2013-05-25 08:08:00,
2013-05-25 01:23:00,61.7,54.0,29.94,SE,125,1.0,6.0,76,0.00,,,0.00,weatherlink.com 1.10,2013-05-25 08:23:00,
2013-05-25 01:38:00,61.4,54.0,29.94,ESE,122,1.0,3.0,76,0.00,,,0.00,weatherlink.com 1.10,2013-05-25 08:38:00,
2013-05-25 01:53:00,61.1,54.0,29.94,SE,138,0.0,2.0,76,0.00,,,0.00,weatherlink.com 1.10,2013-05-25 08:53:00,
2013-05-25 02:08:00,60.9,54.0,29.94,SE,131,2.0,6.0,77,0.00,,,0.00,weatherlink.com 1.10,2013-05-25 09:08:00,
2013-05-25 02:23:00,61.0,54.0,29.94,SSE,155,1.0,4.0,77,0.00,,,0.00,weatherlink.com 1.10,2013-05-25 09:23:00,
2013-05-25 02:38:00,60.8,54.0,29.93,SE,146,0.0,3.0,77,0.00,,,0.00,weatherlink.com 1.10,2013-05-25 09:38:00,
2013-05-25 02:53:00,60.6,54.0,29.94,SE,143,0.0,3.0,78,0.00,,,0.00,weatherlink.com 1.10,2013-05-25 09:53:00,
2013-05-25 03:08:00,60.5,53.0,29.93,SE,144,3.0,4.0,77,0.00,,,0.00,weatherlink.com 1.10,2013-05-25 10:08:00,
2013-05-25 03:23:00,60.5,53.0,29.94,SE,138,2.0,5.0,76,0.00,,,0.00,weatherlink.com 1.10,2013-05-25 10:23:00,
2013-05-25 03:38:00,60.2,53.0,29.93,SE,125,2.0,5.0,76,0.00,,,0.00,weatherlink.com 1.10,2013-05-25 10:38:00,
2013-05-25 03:53:00,60.0,52.0,29.94,SE,139,1.0,4.0,76,0.00,,,0.00,weatherlink.com 1.10,2013-05-25 10:53:00,
2013-05-25 04:08:00,60.0,53.0,29.94,SSE,148,0.0,2.0,77,0.00,,,0.00,weatherlink.com 1.10,2013-05-25 11:08:00,
2013-05-25 04:23:00,60.2,53.0,29.94,East,91,1.0,4.0,76,0.00,,,0.00,weatherlink.com 1.10,2013-05-25 11:23:00,
2013-05-25 04:38:00,60.2,52.0,29.94,East,89,1.0,3.0,75,0.00,,,0.00,weatherlink.com 1.10,2013-05-25 11:38:00,
2013-05-25 04:53:00,60.2,52.0,29.94,ESE,117,2.0,4.0,75,0.00,,,0.00,weatherlink.com 1.10,2013-05-25 11:53:00,
2013-05-25 05:08:00,60.4,52.0,29.94,East,98,2.0,3.0,75,0.00,,,0.00,weatherlink.com 1.10,2013-05-25 12:08:00,
2013-05-25 05:23:00,60.3,52.0,29.94,SE,139,0.0,5.0,75,0.00,,,0.00,weatherlink.com 1.10,2013-05-25 12:23:00,
2013-05-25 05:38:00,60.4,52.0,29.95,NE,53,2.0,4.0,75,0.00,,,0.00,weatherlink.com 1.10,2013-05-25 12:38:00,
2013-05-25 05:53:00,60.4,52.0,29.95,SE,129,0.0,4.0,75,0.00,,,0.00,weatherlink.com 1.10,2013-05-25 12:53:00,
2013-05-25 06:08:00,60.5,52.0,29.95,ESE,105,0.0,3.0,74,0.00,,,0.00,weatherlink.com 1.10,2013-05-25 13:08:00,
2013-05-25 06:24:00,60.7,52.0,29.96,East,96,1.0,4.0,74,0.00,,,0.00,weatherlink.com 1.10,2013-05-25 13:24:00,
2013-05-25 06:38:00,60.9,53.0,29.96,ESE,108,2.0,5.0,74,0.00,,,0.00,weatherlink.com 1.10,2013-05-25 13:38:00,
2013-05-25 06:53:00,61.0,52.0,29.96,ESE,123,1.0,4.0,73,0.00,,,0.00,weatherlink.com 1.10,2013-05-25 13:53:00,
2013-05-25 07:09:00,61.2,52.0,29.96,SE,143,1.0,3.0,73,0.00,,,0.00,weatherlink.com 1.10,2013-05-25 14:09:00,
2013-05-25 07:24:00,61.6,53.0,29.97,SE,127,3.0,3.0,73,0.00,,,0.00,weatherlink.com 1.10,2013-05-25 14:24:00,
2013-05-25 07:39:00,62.1,53.0,29.97,ESE,122,4.0,5.0,72,0.00,,,0.00,weatherlink.com 1.10,2013-05-25 14:39:00,
2013-05-25 07:54:00,62.8,53.0,29.97,SE,135,2.0,4.0,71,0.00,,,0.00,weatherlink.com 1.10,2013-05-25 14:54:00,
2013-05-25 08:09:00,63.4,53.0,29.97,SSE,160,2.0,5.0,69,0.00,,,0.00,weatherlink.com 1.10,2013-05-25 15:09:00,
2013-05-25 08:24:00,64.2,53.0,29.97,ESE,105,2.0,3.0,68,0.00,,,0.00,weatherlink.com 1.10,2013-05-25 15:24:00,
2013-05-25 08:39:00,64.4,53.0,29.98,SSE,162,1.0,4.0,66,0.00,,,0.00,weatherlink.com 1.10,2013-05-25 15:39:00,
2013-05-25 08:54:00,64.9,53.0,29.98,ESE,108,3.0,5.0,65,0.00,,,0.00,weatherlink.com 1.10,2013-05-25 15:54:00,
2013-05-25 09:09:00,65.3,53.0,29.98,SE,129,1.0,5.0,64,0.00,,,0.00,weatherlink.com 1.10,2013-05-25 16:09:00,
2013-05-25 09:24:00,65.6,53.0,29.98,ESE,107,2.0,6.0,63,0.00,,,0.00,weatherlink.com 1.10,2013-05-25 16:24:00,
2013-05-25 09:39:00,66.6,53.0,29.98,SE,136,1.0,4.0,61,0.00,,,0.00,weatherlink.com 1.10,2013-05-25 16:39:00,
2013-05-25 09:54:00,67.0,52.0,29.98,ESE,122,1.0,6.0,60,0.00,,,0.00,weatherlink.com 1.10,2013-05-25 16:54:00,
2013-05-25 10:09:00,67.0,52.0,29.98,ENE,68,5.0,7.0,60,0.00,,,0.00,weatherlink.com 1.10,2013-05-25 17:09:00,
2013-05-25 10:24:00,67.8,52.0,29.99,South,186,1.0,5.0,58,0.00,,,0.00,weatherlink.com 1.10,2013-05-25 17:24:00,
2013-05-25 10:39:00,68.5,53.0,29.99,South,184,4.0,8.0,58,0.00,,,0.00,weatherlink.com 1.10,2013-05-25 17:39:00,
2013-05-25 10:54:00,68.7,53.0,29.99,SSW,206,3.0,7.0,57,0.00,,,0.00,weatherlink.com 1.10,2013-05-25 17:54:00,
2013-05-25 11:09:00,69.1,52.0,29.99,ENE,62,0.0,6.0,55,0.00,,,0.00,weatherlink.com 1.10,2013-05-25 18:09:00,
2013-05-25 11:24:00,69.3,53.0,29.99,North,11,1.0,7.0,56,0.00,,,0.00,weatherlink.com 1.10,2013-05-25 18:24:00,
2013-05-25 11:39:00,70.8,53.0,29.99,East,101,7.0,10.0,54,0.00,,,0.00,weatherlink.com 1.10,2013-05-25 18:39:00,
2013-05-25 11:54:00,70.2,53.0,29.99,ESE,115,0.0,6.0,55,0.00,,,0.00,weatherlink.com 1.10,2013-05-25 18:54:00,
2013-05-25 12:09:00,70.8,54.0,30.00,West,270,3.0,8.0,55,0.00,,,0.00,weatherlink.com 1.10,2013-05-25 19:09:00,
2013-05-25 12:24:00,71.6,53.0,30.00,SSW,207,7.0,10.0,53,0.00,,,0.00,weatherlink.com 1.10,2013-05-25 19:24:00,
2013-05-25 12:39:00,71.9,54.0,30.00,SW,233,5.0,9.0,53,0.00,,,0.00,weatherlink.com 1.10,2013-05-25 19:39:00,
2013-05-25 12:54:00,72.3,54.0,29.99,East,88,3.0,10.0,52,0.00,,,0.00,weatherlink.com 1.10,2013-05-25 19:54:00,
2013-05-25 13:09:00,71.6,54.0,29.99,SW,232,1.0,9.0,54,0.00,,,0.00,weatherlink.com 1.10,2013-05-25 20:09:00,
2013-05-25 13:24:00,72.1,53.0,29.98,WSW,237,2.0,7.0,51,0.00,,,0.00,weatherlink.com 1.10,2013-05-25 20:24:00,
2013-05-25 13:39:00,73.0,54.0,29.98,SSW,205,1.0,7.0,51,0.00,,,0.00,weatherlink.com 1.10,2013-05-25 20:39:00,
2013-05-25 13:54:00,72.8,53.0,29.98,South,171,4.0,9.0,50,0.00,,,0.00,weatherlink.com 1.10,2013-05-25 20:54:00,
2013-05-25 14:09:00,74.1,53.0,29.98,SSE,168,3.0,9.0,48,0.00,,,0.00,weatherlink.com 1.10,2013-05-25 21:09:00,
2013-05-25 14:24:00,74.3,54.0,29.98,WSW,248,3.0,7.0,50,0.00,,,0.00,weatherlink.com 1.10,2013-05-25 21:24:00,
2013-05-25 14:39:00,74.0,54.0,29.97,SE,134,2.0,8.0,50,0.00,,,0.00,weatherlink.com 1.10,2013-05-25 21:39:00,
2013-05-25 14:54:00,73.7,55.0,29.96,SW,232,5.0,8.0,52,0.00,,,0.00,weatherlink.com 1.10,2013-05-25 21:54:00,
2013-05-25 15:09:00,74.6,55.0,29.96,West,271,2.0,8.0,51,0.00,,,0.00,weatherlink.com 1.10,2013-05-25 22:09:00,
2013-05-25 15:24:00,74.4,56.0,29.96,SW,227,6.0,9.0,53,0.00,,,0.00,weatherlink.com 1.10,2013-05-25 22:24:00,
2013-05-25 15:39:00,74.3,56.0,29.95,West,266,4.0,9.0,54,0.00,,,0.00,weatherlink.com 1.10,2013-05-25 22:39:00,
2013-05-25 15:54:00,73.7,56.0,29.95,SW,220,3.0,10.0,55,0.00,,,0.00,weatherlink.com 1.10,2013-05-25 22:54:00,
2013-05-25 16:09:00,73.5,56.0,29.95,SSE,155,6.0,13.0,55,0.00,,,0.00,weatherlink.com 1.10,2013-05-25 23:09:00,
2013-05-25 16:24:00,73.9,56.0,29.94,SW,224,4.0,9.0,54,0.00,,,0.00,weatherlink.com 1.10,2013-05-25 23:24:00,
2013-05-25 16:39:00,73.2,56.0,29.94,SE,141,4.0,11.0,55,0.00,,,0.00,weatherlink.com 1.10,2013-05-25 23:39:00,
2013-05-25 16:54:00,73.4,56.0,29.93,SW,216,6.0,9.0,54,0.00,,,0.00,weatherlink.com 1.10,2013-05-25 23:54:00,
2013-05-25 17:10:00,73.2,55.0,29.94,SW,225,4.0,10.0,54,0.00,,,0.00,weatherlink.com 1.10,2013-05-26 00:10:00,
2013-05-25 17:25:00,73.3,55.0,29.94,SW,219,4.0,8.0,53,0.00,,,0.00,weatherlink.com 1.10,2013-05-26 00:25:00,
2013-05-25 17:40:00,73.4,54.0,29.93,West,261,4.0,7.0,51,0.00,,,0.00,weatherlink.com 1.10,2013-05-26 00:40:00,
2013-05-25 17:55:00,73.0,54.0,29.93,WNW,288,4.0,8.0,51,0.00,,,0.00,weatherlink.com 1.10,2013-05-26 00:55:00,
2013-05-25 18:10:00,72.2,54.0,29.93,WSW,244,4.0,9.0,53,0.00,,,0.00,weatherlink.com 1.10,2013-05-26 01:10:00,
2013-05-25 18:25:00,71.3,54.0,29.93,West,269,2.0,8.0,55,0.00,,,0.00,weatherlink.com 1.10,2013-05-26 01:25:00,
2013-05-25 18:40:00,70.9,55.0,29.93,WNW,299,8.0,9.0,57,0.00,,,0.00,weatherlink.com 1.10,2013-05-26 01:40:00,
2013-05-25 18:55:00,69.6,55.0,29.94,West,272,4.0,9.0,60,0.00,,,0.00,weatherlink.com 1.10,2013-05-26 01:55:00,
2013-05-25 19:10:00,68.7,55.0,29.94,West,273,5.0,9.0,62,0.00,,,0.00,weatherlink.com 1.10,2013-05-26 02:10:00,
2013-05-25 19:25:00,67.4,55.0,29.93,West,266,6.0,8.0,65,0.00,,,0.00,weatherlink.com 1.10,2013-05-26 02:25:00,
2013-05-25 19:40:00,66.4,55.0,29.94,West,275,2.0,7.0,67,0.00,,,0.00,weatherlink.com 1.10,2013-05-26 02:40:00,
2013-05-25 19:55:00,65.6,56.0,29.94,West,269,1.0,5.0,70,0.00,,,0.00,weatherlink.com 1.10,2013-05-26 02:55:00,
2013-05-25 20:10:00,65.0,55.0,29.94,WNW,285,1.0,5.0,71,0.00,,,0.00,weatherlink.com 1.10,2013-05-26 03:10:00,
2013-05-25 20:25:00,64.5,55.0,29.94,West,268,1.0,4.0,72,0.00,,,0.00,weatherlink.com 1.10,2013-05-26 03:25:00,
2013-05-25 20:40:00,64.1,55.0,29.95,WNW,298,4.0,6.0,73,0.00,,,0.00,weatherlink.com 1.10,2013-05-26 03:40:00,
2013-05-25 20:55:00,63.7,55.0,29.95,West,267,1.0,3.0,74,0.00,,,0.00,weatherlink.com 1.10,2013-05-26 03:55:00,
2013-05-25 21:10:00,63.5,55.0,29.96,West,261,1.0,4.0,74,0.00,,,0.00,weatherlink.com 1.10,2013-05-26 04:10:00,
2013-05-25 21:25:00,63.2,55.0,29.96,West,266,0.0,3.0,74,0.00,,,0.00,weatherlink.com 1.10,2013-05-26 04:25:00,
2013-05-25 21:40:00,63.0,55.0,29.96,West,264,0.0,4.0,74,0.00,,,0.00,weatherlink.com 1.10,2013-05-26 04:40:00,
2013-05-25 21:55:00,63.0,55.0,29.96,WNW,283,0.0,4.0,74,0.00,,,0.00,weatherlink.com 1.10,2013-05-26 04:55:00,
2013-05-25 22:10:00,62.9,55.0,29.96,West,266,0.0,1.0,75,0.00,,,0.00,weatherlink.com 1.10,2013-05-26 05:10:00,
2013-05-25 22:25:00,63.0,55.0,29.97,WNW,294,1.0,4.0,76,0.00,,,0.00,weatherlink.com 1.10,2013-05-26 05:25:00,
2013-05-25 22:40:00,62.9,55.0,29.97,WNW,283,3.0,3.0,76,0.00,,,0.00,weatherlink.com 1.10,2013-05-26 05:40:00,
2013-05-25 22:55:00,62.7,55.0,29.97,NW,308,0.0,3.0,76,0.00,,,0.00,weatherlink.com 1.10,2013-05-26 05:55:00,
2013-05-25 23:10:00,62.0,55.0,29.96,NW,308,0.0,0.0,77,0.00,,,0.00,weatherlink.com 1.10,2013-05-26 06:10:00,
2013-05-25 23:25:00,60.9,54.0,29.96,NW,308,0.0,0.0,78,0.00,,,0.00,weatherlink.com 1.10,2013-05-26 06:25:00,
2013-05-25 23:40:00,60.0,54.0,29.96,NW,308,0.0,0.0,80,0.00,,,0.00,weatherlink.com 1.10,2013-05-26 06:40:00,
2013-05-25 23:55:00,59.9,54.0,29.96,NW,309,0.0,0.0,82,0.00,,,0.00,weatherlink.com 1.10,2013-05-26 06:55:00,